Time;durP1;ratioP1;P1;durP2;ratioP2;P2;SDS_P1;SDS_P2;PMS_P1;PMS_P2;Temp;Humidity;BMP_temperature;BMP_pressure;BME280_temperature;BME280_humidity;BME280_pressure;Samples;Min_cycle;Max_cycle;Signal;HPM_P1;HPM_P2
2023/03/08 00:01:39;;;;;;;;;;;;;;;5.66;59.81;99052.44;4962992;28;6864;-77
2023/03/08 00:04:04;;;;;;;;;;;;;;;5.68;59.93;99055.91;4940690;28;6768;-77
2023/03/08 00:06:30;;;;;;;;;;;;;;;5.70;59.65;99054.34;4950120;28;8402;-77
2023/03/08 00:08:58;;;;;;;;;;;;;;;5.73;59.72;99050.19;4956179;28;7234;-77
2023/03/08 00:11:25;;;;;;;;;;;;;;;5.74;59.65;99055.31;4957062;28;7203;-77
2023/03/08 00:13:50;;;;;;;;;;;;;;;5.76;59.66;99058.81;4919600;28;8542;-77
2023/03/08 00:16:16;;;;;;;;;;;;;;;5.76;59.53;99046.13;4923307;28;8694;-77
2023/03/08 00:18:42;;;;;;;;;;;;;;;5.80;59.66;99044.59;4954249;28;8432;-77
2023/03/08 00:21:14;;;;;;;;;;;;;;;5.80;59.36;99040.34;4949504;28;6844;-77
2023/03/08 00:23:41;;;;;;;;;;;;;;;5.82;59.54;99028.56;4936679;28;6796;-77
2023/03/08 00:26:09;;;;;;;;;;;;;;;5.83;59.62;99029.47;4943328;28;7378;-77
2023/03/08 00:28:34;;;;;;;;;;;;;;;5.85;59.58;99030.38;4941626;28;7218;-77
2023/03/08 00:31:04;;;;;;;;;;;;;;;5.86;59.51;99024.50;4935942;28;6983;-77
2023/03/08 00:33:31;;;;;;;;;;;;;;;5.88;59.45;99033.06;4945877;28;7023;-77
2023/03/08 00:36:04;;;;;;;;;;;;;;;5.90;59.50;99030.59;4958950;28;6958;-77
2023/03/08 00:38:34;;;;;;;;;;;;;;;5.92;59.55;99034.06;4945372;28;7218;-77
2023/03/08 00:41:00;;;;;;;;;;;;;;;5.94;59.69;99032.47;4961109;28;8313;-77
2023/03/08 00:43:26;;;;;;;;;;;;;;;5.95;59.42;99029.13;4963275;28;7298;-77
2023/03/08 00:45:52;;;;;;;;;;;;;;;5.92;59.36;99022.25;4934710;28;8725;-77
2023/03/08 00:48:18;;;;;;;;;;;;;;;5.95;59.28;99024.06;4939539;28;6768;-77
2023/03/08 00:50:43;;;;;;;;;;;;;;;5.95;59.15;99021.50;4958479;28;6796;-77
2023/03/08 00:53:09;;;;;;;;;;;;;;;5.97;59.53;99032.63;4944545;28;7584;-77
2023/03/08 00:55:35;;;;;;;;;;;;;;;5.98;59.36;99031.81;4961016;28;8504;-77
2023/03/08 00:58:01;;;;;;;;;;;;;;;6.00;59.23;99031.88;4945593;28;8411;-77
2023/03/08 01:00:27;;;;;;;;;;;;;;;6.02;59.13;99021.00;4944834;28;7237;-77
2023/03/08 01:02:53;;;;;;;;;;;;;;;6.03;59.25;99016.78;4963459;28;6936;-77
2023/03/08 01:05:18;;;;;;;;;;;;;;;6.04;59.34;99018.53;4949831;28;6800;-77
2023/03/08 01:07:44;;;;;;;;;;;;;;;6.03;59.33;99015.09;4944406;28;6812;-77
2023/03/08 01:10:12;;;;;;;;;;;;;;;6.04;58.86;99019.41;4937510;28;7214;-77
2023/03/08 01:12:38;;;;;;;;;;;;;;;6.05;58.96;99010.09;4944404;28;6816;-77
2023/03/08 01:15:05;;;;;;;;;;;;;;;6.04;58.94;99011.78;4938712;28;7078;-77
2023/03/08 01:17:31;;;;;;;;;;;;;;;6.04;59.06;99003.25;4943967;28;7297;-77
2023/03/08 01:19:57;;;;;;;;;;;;;;;6.04;58.92;99003.25;4957337;28;7236;-77
2023/03/08 01:22:22;;;;;;;;;;;;;;;6.03;58.82;99002.38;4941663;28;7981;-77
2023/03/08 01:24:49;;;;;;;;;;;;;;;6.05;59.27;98998.25;4935302;28;7222;-77
2023/03/08 01:27:15;;;;;;;;;;;;;;;6.06;58.81;98986.38;4959339;28;6970;-77
2023/03/08 01:29:42;;;;;;;;;;;;;;;6.08;59.15;98984.78;4960609;28;6868;-77
2023/03/08 01:32:09;;;;;;;;;;;;;;;6.08;58.79;98977.13;4920834;28;8435;-77
2023/03/08 01:34:36;;;;;;;;;;;;;;;6.08;58.65;98975.47;4936256;28;7075;-77
2023/03/08 01:37:02;;;;;;;;;;;;;;;6.08;58.95;98975.47;4958220;28;7301;-77
2023/03/08 01:39:28;;;;;;;;;;;;;;;6.10;58.87;98965.38;4933775;28;7637;-77
2023/03/08 01:41:53;;;;;;;;;;;;;;;6.11;59.01;98967.13;4958839;28;6855;-77
2023/03/08 01:44:21;;;;;;;;;;;;;;;6.13;59.16;98957.88;4919587;28;7188;-77
2023/03/08 01:46:48;;;;;;;;;;;;;;;6.16;59.34;98955.44;4949831;28;7214;-77
2023/03/08 01:49:32;;;;;;;;;;;;;;;6.18;58.89;98946.22;4947149;28;6809;-77
2023/03/08 01:52:11;;;;;;;;;;;;;;;6.20;58.98;98947.16;4960590;28;6983;-77
2023/03/08 01:55:04;;;;;;;;;;;;;;;6.23;58.44;98952.38;4945539;28;8422;-77
2023/03/08 01:57:46;;;;;;;;;;;;;;;6.24;59.08;98949.00;4937158;28;7517;-77
2023/03/08 02:00:18;;;;;;;;;;;;;;;6.26;58.62;98946.53;4938412;28;7399;-77
2023/03/08 02:02:57;;;;;;;;;;;;;;;6.27;58.71;98947.41;4945039;28;7269;-77
2023/03/08 02:05:23;;;;;;;;;;;;;;;6.27;58.67;98939.75;4950193;28;7111;-77
2023/03/08 02:07:48;;;;;;;;;;;;;;;6.25;58.73;98944.81;4958964;28;6863;-77
2023/03/08 02:10:16;;;;;;;;;;;;;;;6.22;58.72;98943.00;4946420;28;7260;-77
2023/03/08 02:12:43;;;;;;;;;;;;;;;6.20;58.49;98943.72;4944152;28;6977;-77
2023/03/08 02:15:13;;;;;;;;;;;;;;;6.16;58.72;98936.78;4963136;28;6800;-77
2023/03/08 02:17:41;;;;;;;;;;;;;;;6.16;58.90;98942.72;4945290;28;6861;-77
2023/03/08 02:20:27;;;;;;;;;;;;;;;6.13;58.84;98937.53;4938273;28;8044;-77
2023/03/08 02:22:53;;;;;;;;;;;;;;;6.13;58.79;98929.88;4939535;28;7239;-77
2023/03/08 02:25:24;;;;;;;;;;;;;;;6.12;58.65;98928.16;4937503;28;6848;-77
2023/03/08 02:27:53;;;;;;;;;;;;;;;6.11;58.77;98921.31;4944974;28;6943;-77
2023/03/08 02:30:32;;;;;;;;;;;;;;;6.10;58.62;98902.63;4934807;28;7077;-77
2023/03/08 02:32:58;;;;;;;;;;;;;;;6.13;58.81;98901.03;4957652;28;8584;-77
2023/03/08 02:35:23;;;;;;;;;;;;;;;6.16;58.71;98902.03;4937297;28;7227;-77
2023/03/08 02:37:49;;;;;;;;;;;;;;;6.18;58.76;98900.44;4962956;28;6784;-77
2023/03/08 02:40:14;;;;;;;;;;;;;;;6.19;58.50;98906.38;4944896;28;6864;-77
2023/03/08 02:42:40;;;;;;;;;;;;;;;6.22;58.58;98906.50;4937189;28;6776;-77
2023/03/08 02:45:08;;;;;;;;;;;;;;;6.22;58.70;98898.84;4916655;28;8379;-77
2023/03/08 02:47:33;;;;;;;;;;;;;;;6.22;58.43;98891.22;4953295;28;8130;-77
2023/03/08 02:49:59;;;;;;;;;;;;;;;6.22;58.14;98894.66;4952395;28;7007;-77
2023/03/08 02:52:25;;;;;;;;;;;;;;;6.24;58.54;98902.34;4947114;28;6936;-77
2023/03/08 02:54:52;;;;;;;;;;;;;;;6.23;58.40;98896.38;4950649;28;8795;-77
2023/03/08 02:57:18;;;;;;;;;;;;;;;6.22;58.24;98888.69;4946877;28;7241;-77
2023/03/08 02:59:44;;;;;;;;;;;;;;;6.19;58.21;98879.28;4957132;28;8269;-77
2023/03/08 03:02:10;;;;;;;;;;;;;;;6.17;58.20;98873.22;4959996;28;6772;-77
2023/03/08 03:04:35;;;;;;;;;;;;;;;6.17;58.32;98862.19;4935988;28;9965;-77
2023/03/08 03:07:01;;;;;;;;;;;;;;;6.16;58.12;98861.31;4965687;28;7175;-77
2023/03/08 03:09:27;;;;;;;;;;;;;;;6.16;58.65;98860.47;4954229;28;8495;-77
2023/03/08 03:11:53;;;;;;;;;;;;;;;6.15;58.66;98851.94;4938759;28;8552;-77
2023/03/08 03:14:19;;;;;;;;;;;;;;;6.15;58.38;98849.41;4952199;28;7349;-77
2023/03/08 03:16:44;;;;;;;;;;;;;;;6.14;58.64;98850.22;4939718;28;8443;-77
2023/03/08 03:19:11;;;;;;;;;;;;;;;6.13;58.45;98848.47;4967175;28;7083;-77
2023/03/08 03:21:38;;;;;;;;;;;;;;;6.13;58.19;98840.84;4947321;28;8458;-77
2023/03/08 03:24:04;;;;;;;;;;;;;;;6.10;58.28;98833.94;4945908;28;8530;-77
2023/03/08 03:26:30;;;;;;;;;;;;;;;6.09;58.26;98823.72;4946043;28;6792;-77
2023/03/08 03:28:58;;;;;;;;;;;;;;;6.05;58.09;98825.28;4961823;28;7167;-77
2023/03/08 03:31:25;;;;;;;;;;;;;;;6.03;58.20;98828.56;4924051;28;8487;-77
2023/03/08 03:33:51;;;;;;;;;;;;;;;6.02;57.98;98831.91;4961209;28;7251;-77
2023/03/08 03:36:21;;;;;;;;;;;;;;;6.00;57.98;98823.31;4953761;28;6771;-77
2023/03/08 03:38:48;;;;;;;;;;;;;;;6.00;58.33;98825.88;4948935;28;8647;-77
2023/03/08 03:41:18;;;;;;;;;;;;;;;5.96;58.42;98828.25;4962861;28;7305;-77
2023/03/08 03:43:44;;;;;;;;;;;;;;;5.94;57.97;98819.72;4950841;28;6804;-77
2023/03/08 03:46:14;;;;;;;;;;;;;;;5.93;58.51;98815.44;4926349;28;8753;-76
2023/03/08 03:48:40;;;;;;;;;;;;;;;5.91;58.23;98806.88;4954282;28;6997;-77
2023/03/08 03:51:14;;;;;;;;;;;;;;;5.88;58.37;98799.09;4950624;28;6900;-77
2023/03/08 03:53:40;;;;;;;;;;;;;;;5.85;58.55;98799.00;4950582;28;7015;-77
2023/03/08 03:56:09;;;;;;;;;;;;;;;5.82;58.43;98799.72;4923820;28;7480;-77
2023/03/08 03:58:35;;;;;;;;;;;;;;;5.81;58.40;98809.84;4939181;28;6940;-77
2023/03/08 04:01:10;;;;;;;;;;;;;;;5.79;58.38;98808.91;4949560;28;7246;-77
2023/03/08 04:03:36;;;;;;;;;;;;;;;5.77;58.61;98802.88;4947816;28;6796;-77
2023/03/08 04:06:14;;;;;;;;;;;;;;;5.75;58.27;98796.88;4941477;28;8704;-77
2023/03/08 04:08:41;;;;;;;;;;;;;;;5.74;58.26;98795.13;4967343;28;6816;-77
2023/03/08 04:11:17;;;;;;;;;;;;;;;5.70;58.39;98792.47;4964809;28;7205;-77
2023/03/08 04:13:43;;;;;;;;;;;;;;;5.67;58.60;98783.84;4949534;28;7504;-77
2023/03/08 04:16:16;;;;;;;;;;;;;;;5.65;58.63;98778.69;4941625;28;8807;-77
2023/03/08 04:18:42;;;;;;;;;;;;;;;5.63;58.72;98772.69;4940016;28;6988;-77
2023/03/08 04:21:09;;;;;;;;;;;;;;;5.62;58.76;98765.88;4929772;28;8600;-77
2023/03/08 04:23:35;;;;;;;;;;;;;;;5.61;58.94;98761.59;4938146;28;6860;-77
2023/03/08 04:26:02;;;;;;;;;;;;;;;5.62;59.12;98744.66;4943398;28;10511;-77
2023/03/08 04:28:28;;;;;;;;;;;;;;;5.59;58.67;98749.63;4941541;28;7127;-77
2023/03/08 04:30:54;;;;;;;;;;;;;;;5.58;58.85;98742.81;4953062;28;7624;-77
2023/03/08 04:33:20;;;;;;;;;;;;;;;5.55;58.77;98729.16;4937295;28;7062;-77
2023/03/08 04:35:46;;;;;;;;;;;;;;;5.54;58.60;98721.47;4948497;28;6807;-77
2023/03/08 04:38:12;;;;;;;;;;;;;;;5.51;59.20;98719.66;4960996;28;7250;-77
2023/03/08 04:41:00;;;;;;;;;;;;;;;5.52;59.23;98712.91;4956446;28;6776;-78
2023/03/08 04:43:24;;;;;;;;;;;;;;;5.51;58.73;98706.97;4935490;28;8448;-77
2023/03/08 04:45:53;;;;;;;;;;;;;;;5.52;58.91;98701.06;4953578;28;6848;-77
2023/03/08 04:48:19;;;;;;;;;;;;;;;5.53;58.60;98702.81;4946379;28;8680;-77
2023/03/08 04:50:55;;;;;;;;;;;;;;;5.50;58.86;98702.69;4955323;28;7054;-77
2023/03/08 04:53:22;;;;;;;;;;;;;;;5.49;58.94;98692.44;4920248;28;8692;-77
2023/03/08 04:55:49;;;;;;;;;;;;;;;5.45;59.07;98693.13;4921817;28;8463;-77
2023/03/08 04:58:15;;;;;;;;;;;;;;;5.45;58.73;98690.59;4946325;28;6788;-77
2023/03/08 05:00:41;;;;;;;;;;;;;;;5.42;58.97;98676.09;4964138;28;7288;-77
2023/03/08 05:03:07;;;;;;;;;;;;;;;5.42;59.01;98673.53;4950709;28;6855;-78
2023/03/08 05:05:33;;;;;;;;;;;;;;;5.45;59.35;98672.81;4937612;28;8273;-77
2023/03/08 05:08:02;;;;;;;;;;;;;;;5.44;58.88;98659.22;4935273;28;8684;-77
2023/03/08 05:10:28;;;;;;;;;;;;;;;5.44;59.20;98664.31;4953289;28;6872;-77
2023/03/08 05:12:54;;;;;;;;;;;;;;;5.44;59.08;98664.31;4938798;28;6970;-77
2023/03/08 05:15:22;;;;;;;;;;;;;;;5.43;59.14;98654.94;4950986;28;7190;-77
2023/03/08 05:17:49;;;;;;;;;;;;;;;5.41;58.94;98654.91;4965925;28;6804;-78
2023/03/08 05:20:15;;;;;;;;;;;;;;;5.41;59.05;98641.31;4946148;28;8401;-78
2023/03/08 05:22:40;;;;;;;;;;;;;;;5.39;59.35;98630.25;4961844;28;8096;-77
2023/03/08 05:25:06;;;;;;;;;;;;;;;5.38;59.27;98634.44;4939468;28;8437;-78
2023/03/08 05:27:34;;;;;;;;;;;;;;;5.36;59.39;98625.00;4946576;28;7142;-77
2023/03/08 05:30:00;;;;;;;;;;;;;;;5.34;59.00;98616.47;4952898;28;8695;-77
2023/03/08 05:32:25;;;;;;;;;;;;;;;5.33;58.96;98618.16;4965571;28;7358;-77
2023/03/08 05:34:52;;;;;;;;;;;;;;;5.31;59.50;98611.28;4952962;28;8964;-76
2023/03/08 05:37:18;;;;;;;;;;;;;;;5.29;58.78;98608.66;4968350;28;6792;-77
2023/03/08 05:39:43;;;;;;;;;;;;;;;5.27;58.93;98589.97;4943256;28;8508;-77
2023/03/08 05:42:11;;;;;;;;;;;;;;;5.27;59.42;98584.88;4953173;28;6788;-77
2023/03/08 05:44:37;;;;;;;;;;;;;;;5.25;59.02;98584.81;4954811;28;7281;-77
2023/03/08 05:47:03;;;;;;;;;;;;;;;5.26;59.06;98583.16;4950946;28;7175;-77
2023/03/08 05:49:28;;;;;;;;;;;;;;;5.24;59.63;98564.44;4967180;28;6944;-77
2023/03/08 05:51:54;;;;;;;;;;;;;;;5.26;59.27;98565.38;4951683;28;7173;-76
2023/03/08 05:54:20;;;;;;;;;;;;;;;5.26;59.80;98560.28;4961669;28;7113;-77
2023/03/08 05:56:46;;;;;;;;;;;;;;;5.28;59.28;98558.66;4930857;28;8531;-77
2023/03/08 05:59:12;;;;;;;;;;;;;;;5.27;59.31;98552.72;4954583;28;7013;-77
2023/03/08 06:01:38;;;;;;;;;;;;;;;5.26;59.56;98556.09;4968909;28;6784;-77
2023/03/08 06:04:04;;;;;;;;;;;;;;;5.27;59.45;98541.69;4945679;28;8544;-77
2023/03/08 06:06:30;;;;;;;;;;;;;;;5.28;59.29;98525.63;4966175;28;7165;-77
2023/03/08 06:08:55;;;;;;;;;;;;;;;5.28;59.71;98523.09;4938474;28;6934;-76
2023/03/08 06:11:21;;;;;;;;;;;;;;;5.25;59.25;98523.84;4964325;28;6796;-77
2023/03/08 06:13:47;;;;;;;;;;;;;;;5.25;59.41;98523.00;4965128;28;7200;-76
2023/03/08 06:16:13;;;;;;;;;;;;;;;5.25;60.05;98516.22;4950735;28;7409;-76
2023/03/08 06:18:41;;;;;;;;;;;;;;;5.24;59.68;98518.72;4952552;28;6973;-76
2023/03/08 06:21:11;;;;;;;;;;;;;;;5.22;59.36;98511.03;4942894;28;8453;-77
2023/03/08 06:23:36;;;;;;;;;;;;;;;5.22;59.27;98512.72;4944671;28;6833;-77
2023/03/08 06:26:04;;;;;;;;;;;;;;;5.21;59.50;98503.34;4937502;28;6955;-77
2023/03/08 06:28:30;;;;;;;;;;;;;;;5.22;59.23;98490.72;4961138;28;6947;-76
2023/03/08 06:30:56;;;;;;;;;;;;;;;5.23;59.75;98487.34;4936005;28;7286;-76
2023/03/08 06:33:26;;;;;;;;;;;;;;;5.21;60.01;98480.47;4943875;28;6808;-76
2023/03/08 06:36:06;;;;;;;;;;;;;;;5.22;59.91;98469.53;4956882;28;8209;-76
2023/03/08 06:38:35;;;;;;;;;;;;;;;5.22;59.83;98472.06;4954234;28;6812;-76
2023/03/08 06:41:01;;;;;;;;;;;;;;;5.22;60.13;98462.75;4946467;28;6808;-77
2023/03/08 06:43:28;;;;;;;;;;;;;;;5.22;60.30;98464.47;4968897;28;7011;-78
2023/03/08 06:45:54;;;;;;;;;;;;;;;5.25;60.24;98467.09;4954409;28;7060;-77
2023/03/08 06:48:20;;;;;;;;;;;;;;;5.27;59.54;98468.03;4973822;28;6812;-77
2023/03/08 06:50:45;;;;;;;;;;;;;;;5.30;60.06;98457.97;4971963;28;6787;-77
2023/03/08 06:53:12;;;;;;;;;;;;;;;5.30;59.60;98455.44;4945428;28;7010;-77
2023/03/08 06:55:40;;;;;;;;;;;;;;;5.32;59.43;98445.34;4960877;28;7273;-77
2023/03/08 06:58:07;;;;;;;;;;;;;;;5.34;59.55;98448.78;4972137;28;7333;-77
2023/03/08 07:00:33;;;;;;;;;;;;;;;5.33;59.81;98441.97;4964948;28;6796;-77
2023/03/08 07:02:59;;;;;;;;;;;;;;;5.34;59.69;98453.88;4970114;28;6800;-77
2023/03/08 07:05:26;;;;;;;;;;;;;;;5.35;59.60;98461.56;4968676;28;6938;-77
2023/03/08 07:07:52;;;;;;;;;;;;;;;5.35;59.96;98455.59;4948764;28;7242;-77
2023/03/08 07:10:20;;;;;;;;;;;;;;;5.35;59.87;98446.31;4942623;28;6804;-77
2023/03/08 07:12:50;;;;;;;;;;;;;;;5.36;59.84;98444.63;4948668;28;8592;-78
2023/03/08 07:15:19;;;;;;;;;;;;;;;5.36;59.33;98445.50;4974622;28;6808;-77
2023/03/08 07:17:51;;;;;;;;;;;;;;;5.38;59.21;98441.34;4952182;28;7523;-77
2023/03/08 07:20:20;;;;;;;;;;;;;;;5.38;59.33;98436.25;4958531;28;6804;-78
2023/03/08 07:22:46;;;;;;;;;;;;;;;5.37;59.37;98424.38;4950945;28;6864;-78
2023/03/08 07:25:15;;;;;;;;;;;;;;;5.37;59.31;98421.84;4957042;28;7150;-78
2023/03/08 07:27:40;;;;;;;;;;;;;;;5.37;59.47;98424.38;4971287;28;7135;-78
2023/03/08 07:30:09;;;;;;;;;;;;;;;5.39;59.23;98416.81;4959306;28;7085;-78
2023/03/08 07:32:39;;;;;;;;;;;;;;;5.38;59.47;98418.47;4972086;28;11383;-79
2023/03/08 07:35:10;;;;;;;;;;;;;;;5.38;59.70;98405.78;4959749;28;6804;-78
2023/03/08 07:37:36;;;;;;;;;;;;;;;5.39;59.34;98397.34;4968886;28;8079;-78
2023/03/08 07:40:03;;;;;;;;;;;;;;;5.41;60.05;98399.94;4969436;28;6808;-78
2023/03/08 07:42:29;;;;;;;;;;;;;;;5.42;60.05;98397.47;4938421;28;7620;-78
2023/03/08 07:44:54;;;;;;;;;;;;;;;5.47;59.79;98384.06;4944002;28;8482;-78
2023/03/08 07:47:20;;;;;;;;;;;;;;;5.53;60.00;98386.81;4959612;28;6956;-78
2023/03/08 07:49:46;;;;;;;;;;;;;;;5.58;59.42;98381.91;4945455;28;8203;-78
2023/03/08 07:52:12;;;;;;;;;;;;;;;5.63;60.00;98386.34;4957616;28;7198;-77
2023/03/08 07:54:38;;;;;;;;;;;;;;;5.64;59.43;98377.91;4971589;28;6922;-78
2023/03/08 07:57:04;;;;;;;;;;;;;;;5.66;59.84;98366.09;4933033;28;8648;-78
2023/03/08 07:59:30;;;;;;;;;;;;;;;5.70;59.66;98362.00;4971125;28;6792;-78
2023/03/08 08:01:56;;;;;;;;;;;;;;;5.73;59.26;98366.31;4947097;28;6788;-78
2023/03/08 08:04:22;;;;;;;;;;;;;;;5.76;59.60;98353.72;4946338;28;6964;-78
2023/03/08 08:06:49;;;;;;;;;;;;;;;5.77;59.97;98347.81;4970961;28;7145;-78
2023/03/08 08:09:16;;;;;;;;;;;;;;;5.81;59.62;98336.94;4951518;28;8441;-78
2023/03/08 08:11:42;;;;;;;;;;;;;;;5.85;59.79;98336.22;4979785;28;6888;-78
2023/03/08 08:14:08;;;;;;;;;;;;;;;5.91;59.73;98341.53;4967737;28;8995;-78
2023/03/08 08:16:34;;;;;;;;;;;;;;;5.98;59.55;98335.81;4985298;28;6932;-79
2023/03/08 08:18:59;;;;;;;;;;;;;;;6.05;59.76;98333.53;4941099;28;8605;-79
2023/03/08 08:21:25;;;;;;;;;;;;;;;6.11;59.58;98333.72;4954396;28;6945;-80
2023/03/08 08:23:52;;;;;;;;;;;;;;;6.18;59.79;98340.75;4938751;28;8702;-79
2023/03/08 08:26:21;;;;;;;;;;;;;;;6.25;59.23;98334.19;4959480;28;7304;-80
2023/03/08 08:28:51;;;;;;;;;;;;;;;6.31;59.25;98324.16;4960754;28;7207;-80
2023/03/08 08:31:21;;;;;;;;;;;;;;;6.38;59.45;98325.25;4972394;28;6796;-80
2023/03/08 08:33:48;;;;;;;;;;;;;;;6.44;59.39;98312.69;5005591;23;10340;-79
2023/03/08 08:36:18;;;;;;;;;;;;;;;6.55;59.00;98307.06;4967131;28;8714;-80
2023/03/08 08:38:45;;;;;;;;;;;;;;;6.63;59.21;98301.41;4988130;28;8515;-83
2023/03/08 08:41:17;;;;;;;;;;;;;;;6.72;58.46;98288.09;4988960;28;7208;-82
2023/03/08 08:43:45;;;;;;;;;;;;;;;6.76;58.05;98300.09;4991282;28;7182;-82
2023/03/08 08:46:12;;;;;;;;;;;;;;;6.80;58.35;98289.19;5007485;28;8584;-83
2023/03/08 08:48:41;;;;;;;;;;;;;;;6.85;58.43;98288.44;4971084;28;8438;-83
2023/03/08 08:51:10;;;;;;;;;;;;;;;6.91;58.61;98286.06;4968432;28;8515;-82
2023/03/08 08:53:36;;;;;;;;;;;;;;;6.96;58.23;98279.44;4966535;28;7009;-83
2023/03/08 08:56:16;;;;;;;;;;;;;;;7.00;58.17;98277.81;4989682;28;7173;-83
2023/03/08 08:58:42;;;;;;;;;;;;;;;7.00;57.89;98283.78;4984834;28;8401;-83
2023/03/08 09:01:17;;;;;;;;;;;;;;;6.98;57.38;98284.56;4972918;28;8411;-83
2023/03/08 09:03:47;;;;;;;;;;;;;;;6.97;57.63;98287.94;4992360;28;8698;-83
2023/03/08 09:06:15;;;;;;;;;;;;;;;6.93;57.38;98289.53;5009561;28;6959;-83
2023/03/08 09:08:41;;;;;;;;;;;;;;;6.90;57.32;98279.25;4985246;28;8484;-82
2023/03/08 09:11:10;;;;;;;;;;;;;;;6.91;57.07;98280.97;4987323;28;6941;-84
2023/03/08 09:13:41;;;;;;;;;;;;;;;6.86;57.09;98274.91;5004697;28;8108;-82
2023/03/08 09:16:27;;;;;;;;;;;;;;;6.81;57.59;98270.53;5008612;28;6970;-83
2023/03/08 09:18:55;;;;;;;;;;;;;;;6.77;57.49;98270.41;4989100;28;8482;-82
2023/03/08 09:21:22;;;;;;;;;;;;;;;6.75;57.27;98266.94;5007035;28;8913;-80
2023/03/08 09:23:47;;;;;;;;;;;;;;;6.70;57.15;98254.09;5008919;28;8746;-81
2023/03/08 09:26:13;;;;;;;;;;;;;;;6.67;57.14;98259.09;5001791;28;6963;-79
2023/03/08 09:28:40;;;;;;;;;;;;;;;6.65;57.54;98253.06;5026128;28;7149;-79
2023/03/08 09:31:11;;;;;;;;;;;;;;;6.63;57.84;98263.22;5005083;28;6795;-79
2023/03/08 09:33:47;;;;;;;;;;;;;;;6.65;58.15;98260.72;4991346;28;8417;-79
2023/03/08 09:36:17;;;;;;;;;;;;;;;6.71;58.28;98260.03;4985263;28;8429;-81
2023/03/08 09:38:45;;;;;;;;;;;;;;;6.78;58.04;98262.81;5008210;28;8419;-79
2023/03/08 09:41:57;;;;;;;;;;;;;;;6.88;57.49;98252.88;4993463;28;6981;-79
2023/03/08 09:45:16;;;;;;;;;;;;;;;6.93;58.32;98258.97;4993268;28;8779;-79
2023/03/08 09:47:52;;;;;;;;;;;;;;;6.99;57.84;98261.69;5001532;28;8469;-82
2023/03/08 09:50:40;;;;;;;;;;;;;;;7.03;57.59;98266.03;5000741;28;8393;-79
2023/03/08 09:53:49;;;;;;;;;;;;;;;7.05;57.32;98248.25;5009257;28;7200;-79
2023/03/08 09:56:49;;;;;;;;;;;;;;;7.09;57.24;98235.66;5005990;28;7252;-79
2023/03/08 09:59:51;;;;;;;;;;;;;;;7.17;57.96;98235.00;4970744;28;7022;-78
2023/03/08 10:02:26;;;;;;;;;;;;;;;7.27;57.99;98226.78;5000478;28;7149;-79
2023/03/08 10:05:27;;;;;;;;;;;;;;;7.40;57.65;98233.06;5004524;28;9770;-78
2023/03/08 10:08:16;;;;;;;;;;;;;;;7.48;57.05;98233.25;5003123;28;8868;-80
2023/03/08 10:11:04;;;;;;;;;;;;;;;7.53;57.49;98226.56;5006987;28;8713;-79
2023/03/08 10:13:39;;;;;;;;;;;;;;;7.57;57.56;98230.94;5009181;28;7713;-79
2023/03/08 10:16:15;;;;;;;;;;;;;;;7.62;57.23;98229.34;5008881;28;8943;-79
2023/03/08 10:18:51;;;;;;;;;;;;;;;7.69;56.66;98227.84;5009092;28;8494;-79
2023/03/08 10:21:21;;;;;;;;;;;;;;;7.73;55.96;98232.16;4990029;28;7007;-79
2023/03/08 10:24:05;;;;;;;;;;;;;;;7.79;56.14;98234.00;5002249;28;6949;-79
2023/03/08 10:26:32;;;;;;;;;;;;;;;7.80;56.16;98237.44;4991636;28;7005;-79
2023/03/08 10:28:58;;;;;;;;;;;;;;;7.86;56.80;98237.56;5008362;28;7434;-80
2023/03/08 10:31:28;;;;;;;;;;;;;;;7.91;55.76;98229.19;5008743;28;8376;-81
2023/03/08 10:34:18;;;;;;;;;;;;;;;7.99;56.52;98224.28;4987255;28;6976;-81
2023/03/08 10:37:01;;;;;;;;;;;;;;;8.06;56.58;98220.19;4991677;28;9802;-79
2023/03/08 10:39:27;;;;;;;;;;;;;;;8.11;55.95;98203.31;4988328;28;7272;-79
2023/03/08 10:41:59;;;;;;;;;;;;;;;8.17;55.56;98200.88;4988129;28;8334;-79
2023/03/08 10:44:51;;;;;;;;;;;;;;;8.24;56.64;98208.69;4999975;28;6864;-79
2023/03/08 10:47:23;;;;;;;;;;;;;;;8.27;56.12;98199.41;5007784;28;7030;-79
2023/03/08 10:50:15;;;;;;;;;;;;;;;8.33;56.11;98196.97;5007452;28;7209;-79
2023/03/08 10:52:46;;;;;;;;;;;;;;;8.39;55.99;98183.47;5006021;28;6970;-79
2023/03/08 10:55:16;;;;;;;;;;;;;;;8.44;55.89;98188.66;5020925;28;6986;-79
2023/03/08 10:57:54;;;;;;;;;;;;;;;8.45;55.41;98191.25;4991307;28;6978;-79
2023/03/08 11:00:32;;;;;;;;;;;;;;;8.45;55.85;98186.16;5005266;28;8483;-79
2023/03/08 11:03:19;;;;;;;;;;;;;;;8.44;56.18;98181.88;5009604;28;6964;-79
2023/03/08 11:05:57;;;;;;;;;;;;;;;8.45;56.11;98180.16;5008363;28;7359;-79
2023/03/08 11:08:34;;;;;;;;;;;;;;;8.53;56.40;98170.16;4989131;28;8537;-79
2023/03/08 11:11:06;;;;;;;;;;;;;;;8.65;55.97;98177.22;4985554;28;8635;-80
2023/03/08 11:13:47;;;;;;;;;;;;;;;8.73;55.71;98179.09;5005232;28;7252;-82
2023/03/08 11:16:36;;;;;;;;;;;;;;;8.78;54.87;98178.31;5005358;28;7183;-79
2023/03/08 11:19:10;;;;;;;;;;;;;;;8.79;55.04;98174.91;5008549;28;8529;-79
2023/03/08 11:22:24;;;;;;;;;;;;;;;8.80;54.98;98174.13;5007855;28;8856;-79
2023/03/08 11:25:16;;;;;;;;;;;;;;;8.80;54.83;98176.66;4990176;28;8923;-79
2023/03/08 11:28:37;;;;;;;;;;;;;;;8.84;55.60;98169.09;4985308;28;8423;-81
2023/03/08 11:31:30;;;;;;;;;;;;;;;8.96;55.18;98170.16;4984399;28;8587;-79
2023/03/08 11:34:20;;;;;;;;;;;;;;;9.11;55.68;98161.91;5005918;28;7194;-79
2023/03/08 11:37:52;;;;;;;;;;;;;;;9.33;54.94;98167.38;5026782;28;8424;-81
2023/03/08 11:40:38;;;;;;;;;;;;;;;9.51;54.87;98170.25;4942011;28;7251;-82
2023/03/08 11:43:32;;;;;;;;;;;;;;;9.65;54.90;98175.59;4995888;28;8490;-79
2023/03/08 11:46:12;;;;;;;;;;;;;;;9.74;53.78;98177.41;4996021;28;8458;-79
2023/03/08 11:49:05;;;;;;;;;;;;;;;9.74;54.01;98179.97;5028276;28;6960;-80
2023/03/08 11:52:19;;;;;;;;;;;;;;;9.65;53.56;98169.59;5010963;28;8458;-79
2023/03/08 11:55:15;;;;;;;;;;;;;;;9.52;53.37;98164.28;5012341;28;7172;-81
2023/03/08 11:57:46;;;;;;;;;;;;;;;9.45;52.88;98162.47;5010892;28;6880;-81
2023/03/08 12:00:36;;;;;;;;;;;;;;;9.37;53.36;98157.22;4994088;28;8424;-81
2023/03/08 12:03:24;;;;;;;;;;;;;;;9.29;54.90;98158.78;5011132;28;6990;-80
2023/03/08 12:05:56;;;;;;;;;;;;;;;9.30;53.99;98153.72;4994744;28;9013;-80
2023/03/08 12:08:31;;;;;;;;;;;;;;;9.33;54.76;98162.25;5002215;28;8718;-81
2023/03/08 12:11:10;;;;;;;;;;;;;;;9.38;55.15;98155.56;4986327;28;8884;-81
2023/03/08 12:13:47;;;;;;;;;;;;;;;9.49;55.27;98148.91;4996147;28;8694;-81
2023/03/08 12:16:22;;;;;;;;;;;;;;;9.61;55.74;98140.59;5028394;28;8457;-79
2023/03/08 12:19:30;;;;;;;;;;;;;;;9.69;54.99;98143.25;5027111;28;6961;-79
2023/03/08 12:22:20;;;;;;;;;;;;;;;9.74;54.79;98144.16;5022834;28;7030;-79
2023/03/08 12:25:12;;;;;;;;;;;;;;;9.81;54.90;98133.19;5002692;28;7472;-79
2023/03/08 12:28:04;;;;;;;;;;;;;;;9.97;55.47;98126.59;5010967;28;7314;-79
2023/03/08 12:31:18;;;;;;;;;;;;;;;10.06;55.34;98120.75;5010713;28;8470;-79
2023/03/08 12:33:47;;;;;;;;;;;;;;;10.11;54.69;98125.94;4980433;28;7328;-80
2023/03/08 12:36:13;;;;;;;;;;;;;;;10.17;54.89;98122.59;4988006;28;7254;-79
2023/03/08 12:38:45;;;;;;;;;;;;;;;10.24;54.53;98116.72;5025945;28;7178;-79
2023/03/08 12:41:31;;;;;;;;;;;;;;;10.24;54.57;98112.44;5006242;28;8684;-79
2023/03/08 12:44:27;;;;;;;;;;;;;;;10.25;54.53;98105.63;5005632;28;6976;-80
2023/03/08 12:47:21;;;;;;;;;;;;;;;10.24;54.90;98111.59;5005999;28;7190;-79
2023/03/08 12:49:55;;;;;;;;;;;;;;;10.23;54.24;98109.84;4988027;28;6989;-79
2023/03/08 12:52:24;;;;;;;;;;;;;;;10.15;53.80;98109.75;5008536;28;7365;-80
2023/03/08 12:55:17;;;;;;;;;;;;;;;10.04;53.74;98108.78;5025114;28;7270;-79
2023/03/08 12:57:51;;;;;;;;;;;;;;;9.94;54.75;98108.66;4987234;28;8418;-80
2023/03/08 13:00:37;;;;;;;;;;;;;;;9.89;54.20;98104.31;5008786;28;7825;-79
2023/03/08 13:03:45;;;;;;;;;;;;;;;9.81;54.10;98101.66;5000510;28;8448;-80
2023/03/08 13:06:54;;;;;;;;;;;;;;;9.72;54.72;98102.34;5010848;28;6970;-80
2023/03/08 13:09:45;;;;;;;;;;;;;;;9.62;54.16;98103.06;5000331;28;7251;-80
2023/03/08 13:12:49;;;;;;;;;;;;;;;9.58;54.69;98100.47;4994573;28;8303;-81
2023/03/08 13:15:17;;;;;;;;;;;;;;;9.63;54.65;98099.66;5010818;28;8452;-81
2023/03/08 13:18:10;;;;;;;;;;;;;;;9.65;54.80;98096.28;5008622;28;8450;-80
2023/03/08 13:21:27;;;;;;;;;;;;;;;9.66;55.40;98092.06;5004417;28;8448;-82
2023/03/08 13:24:11;;;;;;;;;;;;;;;9.65;54.87;98091.19;5004245;28;7107;-80
2023/03/08 13:27:23;;;;;;;;;;;;;;;9.64;55.42;98083.47;5000662;28;7016;-81
2023/03/08 13:29:50;;;;;;;;;;;;;;;9.62;55.11;98078.34;5008203;28;7425;-81
2023/03/08 13:32:20;;;;;;;;;;;;;;;9.66;54.64;98071.59;4996279;28;8695;-81
2023/03/08 13:34:59;;;;;;;;;;;;;;;9.66;55.14;98067.31;5004783;28;8701;-81
2023/03/08 13:37:28;;;;;;;;;;;;;;;9.66;54.82;98076.72;5009631;28;7147;-81